Time;durP1;ratioP1;P1;durP2;ratioP2;P2;SDS_P1;SDS_P2;PMS_P1;PMS_P2;Temp;Humidity;BMP_temperature;BMP_pressure;BME280_temperature;BME280_humidity;BME280_pressure;Samples;Min_cycle;Max_cycle;Signal;HPM_P1;HPM_P2
2022/12/05 00:01:25;;;;;;;4.47;2.97;;;;;;;20.00;53.37;101248.75;5096020;28;20052;-80
2022/12/05 00:03:54;;;;;;;4.55;3.00;;;;;;;20.00;53.13;101251.44;5096628;28;20055;-78
2022/12/05 00:06:23;;;;;;;5.90;3.63;;;;;;;19.99;52.96;101255.09;5096379;28;20407;-80
2022/12/05 00:08:51;;;;;;;5.18;3.45;;;;;;;19.99;53.04;101258.66;5095736;28;20048;-79
2022/12/05 00:11:21;;;;;;;4.40;3.00;;;;;;;20.00;53.06;101259.50;5095465;28;20507;-80
2022/12/05 00:13:50;;;;;;;4.97;3.40;;;;;;;19.99;52.92;101252.41;5096182;28;20498;-80
2022/12/05 00:16:23;;;;;;;7.35;3.85;;;;;;;19.98;52.82;101253.41;5095868;28;20055;-80
2022/12/05 00:18:51;;;;;;;;;;;;;;;19.98;52.59;101262.31;5096633;28;20074;-80
2022/12/05 00:21:23;;;;;;;3.80;3.20;;;;;;;19.97;52.71;101260.63;5095319;28;19920;-81
2022/12/05 00:23:52;;;;;;;4.28;3.40;;;;;;;19.98;52.67;101265.00;5095471;28;20048;-81
2022/12/05 00:26:20;;;;;;;4.97;3.33;;;;;;;19.97;52.49;101251.66;5095844;28;20055;-81
2022/12/05 00:28:49;;;;;;;5.80;3.30;;;;;;;19.97;52.32;101254.38;5096044;28;20044;-81
2022/12/05 00:31:21;;;;;;;6.95;3.50;;;;;;;19.97;52.09;101257.06;5095480;28;20403;-81
2022/12/05 00:33:49;;;;;;;5.18;3.78;;;;;;;19.96;52.44;101255.34;5093760;28;20059;-81
2022/12/05 00:36:18;;;;;;;4.22;2.72;;;;;;;19.96;52.07;101256.19;5095768;28;20047;-81
2022/12/05 00:38:46;;;;;;;5.35;3.17;;;;;;;19.95;52.00;101257.19;5110895;28;20043;-81
2022/12/05 00:41:19;;;;;;;4.38;2.90;;;;;;;19.96;52.08;101260.72;5096048;28;20052;-78
2022/12/05 00:43:46;;;;;;;4.35;3.15;;;;;;;19.95;52.00;101245.59;5096102;28;20494;-80
2022/12/05 00:46:16;;;;;;;5.43;3.40;;;;;;;19.95;51.97;101243.75;5096260;28;20040;-80
2022/12/05 00:48:44;;;;;;;4.07;3.40;;;;;;;19.94;51.95;101239.38;5110794;28;20438;-81
2022/12/05 00:51:22;;;;;;;3.60;2.90;;;;;;;19.95;52.05;101241.06;5095491;28;20491;-81
2022/12/05 00:53:49;;;;;;;3.83;3.15;;;;;;;19.94;52.03;101242.06;5095926;28;20430;-81
2022/12/05 00:56:20;;;;;;;4.57;3.50;;;;;;;19.93;51.95;101243.03;5095115;28;20361;-81
2022/12/05 00:58:48;;;;;;;4.60;2.97;;;;;;;19.93;51.92;101243.03;5097075;28;20054;-81
2022/12/05 01:01:25;;;;;;;4.25;3.10;;;;;;;19.93;51.89;101248.41;5096986;28;20040;-81
2022/12/05 01:03:56;;;;;;;3.10;2.67;;;;;;;19.93;52.17;101259.16;5096414;28;20044;-81
2022/12/05 01:06:25;;;;;;;4.07;3.15;;;;;;;19.93;51.95;101258.28;5096796;28;20055;-80
2022/12/05 01:08:54;;;;;;;4.68;3.22;;;;;;;19.92;51.92;101252.06;5097305;28;20365;-81
2022/12/05 01:11:23;;;;;;;5.18;3.10;;;;;;;19.93;51.77;101247.53;5095506;28;20048;-81
2022/12/05 01:13:52;;;;;;;3.65;2.85;;;;;;;19.93;51.84;101239.47;5095544;28;20051;-81
2022/12/05 01:16:22;;;;;;;4.60;3.15;;;;;;;19.92;51.96;101237.78;5095600;28;20044;-81
2022/12/05 01:18:50;;;;;;;4.88;3.25;;;;;;;19.92;51.85;101230.56;5095395;28;20044;-81
2022/12/05 01:21:18;;;;;;;5.47;3.28;;;;;;;19.92;51.81;101233.25;5094827;28;20040;-81
2022/12/05 01:23:46;;;;;;;3.80;2.90;;;;;;;19.91;51.82;101236.06;5094787;28;20052;-81
2022/12/05 01:26:15;;;;;;;5.15;2.95;;;;;;;19.91;51.92;101250.34;5095272;28;20048;-81
2022/12/05 01:28:44;;;;;;;5.00;3.15;;;;;;;19.90;51.86;101259.41;5095358;28;20047;-81
2022/12/05 01:31:23;;;;;;;4.72;3.45;;;;;;;19.90;52.04;101256.72;5110702;28;20044;-81
2022/12/05 01:33:52;;;;;;;3.80;2.80;;;;;;;19.91;52.02;101254.88;5095132;28;20052;-81
2022/12/05 01:36:20;;;;;;;3.63;2.75;;;;;;;19.90;51.99;101251.34;5094599;28;20047;-81
2022/12/05 01:38:48;;;;;;;4.22;3.03;;;;;;;19.90;52.09;101269.31;5092878;28;20052;-80
2022/12/05 01:41:19;;;;;;;4.32;2.58;;;;;;;19.89;51.93;101268.44;5095636;28;20056;-80
2022/12/05 01:44:00;;;;;;;4.57;3.13;;;;;;;19.90;51.97;101270.16;5094434;28;20044;-79
2022/12/05 01:46:31;;;;;;;3.40;2.88;;;;;;;19.90;51.81;101262.09;5094056;28;20510;-80
2022/12/05 01:49:29;;;;;;;3.83;2.80;;;;;;;19.90;51.94;101274.69;5094291;28;20048;-79
2022/12/05 01:52:05;;;;;;;5.40;3.20;;;;;;;19.89;51.93;101271.13;5109391;28;20055;-79
2022/12/05 01:54:35;;;;;;;3.95;3.08;;;;;;;19.89;51.88;101275.63;5092021;28;20130;-79
2022/12/05 01:57:07;;;;;;;3.72;3.00;;;;;;;19.89;51.89;101268.44;5094808;28;20044;-79
2022/12/05 01:59:38;;;;;;;4.00;3.10;;;;;;;19.90;51.96;101261.25;5093166;28;20062;-80
2022/12/05 02:02:07;;;;;;;4.22;2.78;;;;;;;19.88;51.86;101272.09;5095294;28;20051;-80
2022/12/05 02:04:49;;;;;;;3.33;2.58;;;;;;;19.89;51.96;101275.63;5094309;28;20040;-79
2022/12/05 02:07:18;;;;;;;4.68;2.90;;;;;;;19.89;51.82;101256.81;5094770;28;20052;-79
2022/12/05 02:09:48;;;;;;;3.38;2.45;;;;;;;19.89;51.98;101260.41;5093935;28;20048;-80
2022/12/05 02:12:19;;;;;;;4.35;3.10;;;;;;;19.88;51.82;101266.72;5109496;28;20052;-79
2022/12/05 02:14:46;;;;;;;3.80;3.03;;;;;;;19.89;52.01;101254.13;5095171;28;20375;-79
2022/12/05 02:17:28;;;;;;;4.63;2.50;;;;;;;19.88;52.03;101255.97;5094670;28;20047;-80
2022/12/05 02:20:04;;;;;;;3.20;2.63;;;;;;;19.89;51.91;101251.44;5094226;28;20055;-79
2022/12/05 02:23:01;;;;;;;3.90;2.55;;;;;;;19.88;51.89;101247.06;5094594;28;20048;-79
2022/12/05 02:25:44;;;;;;;3.80;2.70;;;;;;;19.87;51.95;101240.84;5094281;28;20048;-79
2022/12/05 02:28:54;;;;;;;3.47;2.85;;;;;;;19.87;52.03;101235.47;5094981;28;20044;-80
2022/12/05 02:31:34;;;;;;;4.18;2.42;;;;;;;19.88;51.97;101241.69;5094727;28;20051;-80
2022/12/05 02:34:14;;;;;;;3.55;2.70;;;;;;;19.87;52.18;101242.69;5095226;28;20055;-81
2022/12/05 02:36:47;;;;;;;3.97;2.88;;;;;;;19.87;51.89;101248.06;5097678;28;20047;-81
2022/12/05 02:39:26;;;;;;;3.72;2.67;;;;;;;19.87;51.85;101245.38;5113547;28;20523;-81
2022/12/05 02:42:03;;;;;;;3.42;2.42;;;;;;;19.86;52.14;101249.03;5098094;28;20052;-81
2022/12/05 02:44:38;;;;;;;3.10;2.40;;;;;;;19.87;52.00;101238.16;5114275;28;20051;-81
2022/12/05 02:47:08;;;;;;;4.82;2.35;;;;;;;19.86;52.10;101235.59;5114217;28;20395;-81
2022/12/05 02:49:36;;;;;;;6.32;2.90;;;;;;;19.86;51.97;101239.13;5097908;28;20087;-80
2022/12/05 02:52:09;;;;;;;3.42;2.75;;;;;;;19.86;52.02;101236.44;5098301;28;20063;-81
2022/12/05 02:54:41;;;;;;;3.75;2.90;;;;;;;19.86;52.15;101236.44;5098018;28;20048;-80
2022/12/05 02:57:10;;;;;;;3.72;2.65;;;;;;;19.86;52.25;101232.91;5095942;28;20044;-80
2022/12/05 02:59:38;;;;;;;3.58;2.65;;;;;;;19.85;52.06;101224.00;5112337;28;20063;-79
2022/12/05 03:02:08;;;;;;;3.60;2.53;;;;;;;19.84;52.01;101216.91;5098010;28;20040;-80
2022/12/05 03:04:36;;;;;;;3.53;2.17;;;;;;;19.85;52.09;101225.81;5097137;28;20052;-81
2022/12/05 03:07:08;;;;;;;3.35;2.47;;;;;;;19.86;52.31;101235.59;5097272;28;20051;-80
2022/12/05 03:09:47;;;;;;;3.22;2.20;;;;;;;19.84;52.29;101227.66;5113700;28;20048;-80
2022/12/05 03:12:20;;;;;;;3.08;2.38;;;;;;;19.84;52.05;101224.09;5098471;28;20048;-80
2022/12/05 03:14:59;;;;;;;;;;;;;;;19.84;52.16;101219.59;5096264;28;20056;-80
2022/12/05 03:17:34;;;;;;;3.83;2.20;;;;;;;19.83;52.23;101220.56;5098047;28;19927;-80
2022/12/05 03:20:24;;;;;;;3.00;2.35;;;;;;;19.84;52.32;101218.75;5097791;28;20051;-79
2022/12/05 03:23:23;;;;;;;4.55;2.58;;;;;;;19.83;52.38;101212.50;5097342;28;20048;-80
2022/12/05 03:25:53;;;;;;;4.05;2.60;;;;;;;19.83;52.08;101195.53;5095349;28;20071;-78
2022/12/05 03:28:53;;;;;;;4.18;2.15;;;;;;;19.83;52.55;101188.34;5097754;28;20048;-79
2022/12/05 03:31:49;;;;;;;4.03;2.80;;;;;;;19.83;52.25;101195.53;5093949;28;20510;-79
2022/12/05 03:34:25;;;;;;;4.00;2.70;;;;;;;19.83;52.21;101208.97;5096127;28;20488;-80
2022/12/05 03:36:53;;;;;;;4.47;2.28;;;;;;;19.84;52.44;101222.28;5097861;28;20044;-80
2022/12/05 03:39:26;;;;;;;3.42;2.60;;;;;;;19.84;52.65;101226.81;5097035;28;20059;-80
2022/12/05 03:42:13;;;;;;;3.10;2.00;;;;;;;19.84;52.99;101230.34;5097576;28;20058;-80
2022/12/05 03:44:49;;;;;;;4.35;2.53;;;;;;;19.85;53.13;101217.75;5097736;28;20047;-81
2022/12/05 03:47:43;;;;;;;2.83;2.03;;;;;;;19.84;53.07;101210.69;5095996;28;20050;-79
2022/12/05 03:50:19;;;;;;;5.07;2.75;;;;;;;19.83;53.30;101209.81;5112174;28;20059;-79
2022/12/05 03:52:58;;;;;;;3.63;2.35;;;;;;;19.84;53.24;101211.53;5095998;28;20073;-79
2022/12/05 03:55:53;;;;;;;4.25;2.75;;;;;;;19.85;53.46;101215.06;5096250;28;20399;-78
2022/12/05 03:58:30;;;;;;;4.00;2.70;;;;;;;19.83;53.21;101214.34;5097173;28;20051;-79
2022/12/05 04:01:00;;;;;;;5.63;2.85;;;;;;;19.84;53.18;101224.09;5094400;28;20070;-79
2022/12/05 04:03:38;;;;;;;3.92;2.80;;;;;;;19.84;53.12;101210.69;5096915;28;20040;-79
2022/12/05 04:06:33;;;;;;;3.63;2.50;;;;;;;19.83;53.00;101214.34;5096621;28;20036;-79
2022/12/05 04:09:03;;;;;;;3.72;2.78;;;;;;;19.84;53.01;101240.22;5095325;28;20056;-79
2022/12/05 04:11:37;;;;;;;3.47;2.20;;;;;;;19.84;53.02;101248.28;5113037;28;20475;-80
2022/12/05 04:14:12;;;;;;;3.15;2.25;;;;;;;19.84;52.95;101237.53;5112526;28;20047;-80
2022/12/05 04:17:03;;;;;;;3.33;2.53;;;;;;;19.83;53.07;101235.84;5078239;28;20044;-80
2022/12/05 04:22:33;;;;;;;3.67;2.70;;;;;;;19.83;53.00;101222.41;5096367;28;20040;-79
2022/12/05 04:28:01;;;;;;;4.18;2.15;;;;;;;19.82;52.97;101243.06;5095801;28;20044;-79
2022/12/05 04:30:41;;;;;;;3.90;2.25;;;;;;;19.82;53.16;101244.91;5094950;28;20055;-89
2022/12/05 04:33:15;;;;;;;3.67;2.47;;;;;;;19.82;53.46;101243.06;5095117;28;20407;-87
2022/12/05 04:35:51;;;;;;;4.90;2.88;;;;;;;19.83;53.48;101235.84;5097454;28;20044;-89
2022/12/05 04:38:42;;;;;;;5.75;2.50;;;;;;;19.82;53.52;101223.41;5098039;28;20048;-89
2022/12/05 04:41:21;;;;;;;3.45;2.45;;;;;;;19.82;53.51;101218.03;5096294;28;20055;-88
2022/12/05 04:43:53;;;;;;;3.53;2.50;;;;;;;19.82;53.59;101220.72;5094969;28;20419;-88
2022/12/05 04:46:21;;;;;;;4.55;2.67;;;;;;;19.82;53.70;101215.34;5096944;28;20043;-87
2022/12/05 04:48:57;;;;;;;4.22;2.53;;;;;;;19.82;53.64;101218.88;5096081;28;20055;-86
2022/12/05 04:51:28;;;;;;;3.42;2.35;;;;;;;19.81;53.52;101211.81;5096430;28;20377;-85
2022/12/05 04:54:02;;;;;;;3.83;2.25;;;;;;;19.80;53.41;101203.84;5095889;28;20044;-79
2022/12/05 04:56:35;;;;;;;3.92;2.55;;;;;;;19.81;53.51;101217.19;5096009;28;20048;-79
2022/12/05 04:59:03;;;;;;;;;;;;;;;19.82;53.25;101218.03;5093812;28;20407;-78
2022/12/05 05:01:37;;;;;;;3.45;2.40;;;;;;;19.80;53.10;101215.44;5093435;28;19920;-79
2022/12/05 05:04:07;;;;;;;3.65;2.35;;;;;;;19.81;53.15;101216.28;5095377;28;20499;-79
2022/12/05 05:06:39;;;;;;;3.38;2.55;;;;;;;19.82;53.15;101218.88;5094593;28;20142;-79
2022/12/05 05:09:06;;;;;;;4.18;2.15;;;;;;;19.81;53.12;101208.22;5095251;28;20048;-86
2022/12/05 05:11:34;;;;;;;5.68;2.63;;;;;;;19.82;53.76;101218.03;5095286;28;20055;-83
2022/12/05 05:14:02;;;;;;;4.13;2.25;;;;;;;19.82;53.91;101223.41;5095317;28;20052;-81
2022/12/05 05:16:40;;;;;;;3.60;2.28;;;;;;;19.82;53.89;101226.94;5095363;28;20036;-81
2022/12/05 05:19:09;;;;;;;4.53;2.42;;;;;;;19.83;53.90;101215.19;5094056;28;20044;-81
2022/12/05 05:21:40;;;;;;;5.00;2.33;;;;;;;19.83;54.09;101225.09;5079950;28;20044;-80
2022/12/05 05:24:09;;;;;;;3.72;2.20;;;;;;;19.84;53.50;101237.53;5075784;28;20052;-81
2022/12/05 05:26:39;;;;;;;3.35;2.17;;;;;;;19.83;54.01;101241.22;5075119;28;20060;-81
2022/12/05 05:29:08;;;;;;;4.10;2.20;;;;;;;19.83;53.89;101242.06;5074876;28;20499;-79
2022/12/05 05:31:36;;;;;;;4.03;2.33;;;;;;;19.83;53.85;101247.44;5074874;28;20055;-79
2022/12/05 05:34:04;;;;;;;2.97;2.15;;;;;;;19.83;53.94;101235.84;5074831;28;20059;-79
2022/12/05 05:36:37;;;;;;;5.80;1.92;;;;;;;19.82;53.87;101229.63;5075114;28;20518;-80
2022/12/05 05:39:08;;;;;;;4.50;2.40;;;;;;;19.83;53.68;101230.47;5084256;28;20047;-80
2022/12/05 05:41:35;;;;;;;3.45;2.33;;;;;;;19.83;53.87;101243.91;5095294;28;20044;-80
2022/12/05 05:44:03;;;;;;;3.58;2.00;;;;;;;19.82;53.69;101245.75;5094624;28;20044;-80
2022/12/05 05:46:33;;;;;;;3.28;2.08;;;;;;;19.82;53.72;101239.53;5094351;28;20040;-80
2022/12/05 05:49:01;;;;;;;3.03;1.92;;;;;;;19.83;53.62;101243.91;5085151;28;20048;-80
2022/12/05 05:51:29;;;;;;;3.28;2.28;;;;;;;19.83;53.62;101246.59;5073116;28;20049;-80
2022/12/05 05:53:57;;;;;;;4.25;2.35;;;;;;;19.82;53.42;101242.22;5083401;28;20144;-80
2022/12/05 05:56:25;;;;;;;2.97;1.98;;;;;;;19.83;53.60;101243.91;5094033;28;20051;-80
2022/12/05 05:58:59;;;;;;;3.08;2.30;;;;;;;19.81;53.53;101244.03;5085398;28;20072;-81
2022/12/05 06:01:27;;;;;;;4.00;2.38;;;;;;;19.83;53.45;101238.53;5073610;28;20055;-80
2022/12/05 06:03:55;;;;;;;3.35;2.10;;;;;;;19.82;53.61;101239.53;5072063;28;20381;-80
2022/12/05 06:06:24;;;;;;;4.38;2.35;;;;;;;19.81;53.37;101249.41;5074521;28;20506;-79
2022/12/05 06:08:51;;;;;;;4.13;2.10;;;;;;;19.82;53.36;101259.19;5073626;28;20048;-80
2022/12/05 06:11:24;;;;;;;4.05;2.47;;;;;;;19.82;53.36;101271.75;5075614;28;20048;-79
2022/12/05 06:13:54;;;;;;;3.45;2.55;;;;;;;19.81;53.19;101261.97;5078545;28;20041;-79
2022/12/05 06:16:23;;;;;;;4.05;2.40;;;;;;;19.81;53.41;101270.91;5076807;28;20063;-78
2022/12/05 06:18:51;;;;;;;3.42;2.40;;;;;;;19.81;53.42;101259.28;5084302;28;20044;-78
2022/12/05 06:21:19;;;;;;;3.65;2.45;;;;;;;19.82;53.15;101263.69;5097997;28;20040;-78
2022/12/05 06:23:46;;;;;;;4.93;2.55;;;;;;;19.81;53.12;101262.84;5091573;28;20041;-77
2022/12/05 06:26:17;;;;;;;3.85;2.13;;;;;;;19.80;53.10;101253.06;5077676;28;20484;-79
2022/12/05 06:28:45;;;;;;;3.97;2.50;;;;;;;19.81;53.49;101260.16;5077500;28;20040;-79
2022/12/05 06:31:16;;;;;;;3.53;2.00;;;;;;;19.81;53.25;101254.78;5077512;28;20049;-79
2022/12/05 06:33:43;;;;;;;3.30;2.35;;;;;;;19.80;53.22;101258.44;5080929;28;20044;-78
2022/12/05 06:36:13;;;;;;;3.58;2.33;;;;;;;19.81;53.28;101270.91;5097461;28;20079;-79
2022/12/05 06:38:41;;;;;;;3.60;2.33;;;;;;;19.80;53.22;101268.31;5097160;28;20043;-79
2022/12/05 06:41:12;;;;;;;3.35;2.17;;;;;;;19.81;53.21;101270.91;5098203;28;20472;-80
2022/12/05 06:43:40;;;;;;;3.67;2.28;;;;;;;19.80;53.44;101266.50;5097519;28;20063;-85
2022/12/05 06:46:09;;;;;;;3.72;2.40;;;;;;;19.81;53.27;101268.22;5098537;28;20044;-79
2022/12/05 06:48:37;;;;;;;3.35;2.17;;;;;;;19.80;53.12;101276.38;5092982;28;20040;-78
2022/12/05 06:51:07;;;;;;;3.78;2.50;;;;;;;19.80;53.40;101271.88;5076848;28;20403;-79
2022/12/05 06:53:35;;;;;;;4.57;2.40;;;;;;;19.80;53.22;101277.25;5076711;28;20056;-79
2022/12/05 06:56:06;;;;;;;3.72;2.40;;;;;;;19.80;53.06;101279.91;5078365;28;20392;-80
2022/12/05 06:58:33;;;;;;;3.92;2.22;;;;;;;19.80;53.05;101284.44;5079597;28;20055;-79
2022/12/05 07:03:49;;;;;;;3.72;2.53;;;;;;;19.80;53.06;101287.13;5093939;28;20427;-78
2022/12/05 07:06:17;;;;;;;3.88;2.30;;;;;;;19.79;53.02;101282.75;5076835;28;20051;-78
2022/12/05 07:08:44;;;;;;;3.72;2.55;;;;;;;19.79;53.22;101283.59;5079582;28;20040;-78
2022/12/05 07:11:11;;;;;;;3.00;2.10;;;;;;;19.79;53.04;101283.59;5097176;28;20044;-78
2022/12/05 07:13:39;;;;;;;4.07;2.40;;;;;;;19.79;53.10;101291.66;5095111;28;20040;-79
2022/12/05 07:16:07;;;;;;;4.53;2.30;;;;;;;19.78;52.98;101295.31;5076938;28;20483;-82
2022/12/05 07:18:35;;;;;;;3.75;2.50;;;;;;;19.79;53.05;101293.50;5059248;28;20044;-82
2022/12/05 07:21:10;;;;;;;3.83;2.50;;;;;;;19.78;53.26;101295.31;5075608;28;20048;-80
2022/12/05 07:23:41;;;;;;;5.75;2.60;;;;;;;19.79;53.09;101305.09;5078528;28;20095;-79
2022/12/05 07:26:10;;;;;;;3.83;2.45;;;;;;;19.79;53.07;101302.41;5096141;28;20059;-79
2022/12/05 07:28:38;;;;;;;14.15;3.72;;;;;;;19.76;52.90;101298.13;5096407;28;20044;-79
2022/12/05 07:31:08;;;;;;;8.90;5.25;;;;;;;19.76;51.68;101298.13;5097254;28;20052;-79
2022/12/05 07:33:36;;;;;;;10.18;6.35;;;;;;;19.73;51.00;101306.44;5096660;28;20044;-79
2022/12/05 07:36:07;;;;;;;8.90;6.38;;;;;;;19.69;50.92;101298.75;5094459;28;20075;-80
2022/12/05 07:38:34;;;;;;;5.80;4.68;;;;;;;19.67;51.59;101301.56;5094432;28;20055;-80
2022/12/05 07:41:25;;;;;;;4.50;3.55;;;;;;;19.68;52.42;101303.25;5076247;28;20052;-80
2022/12/05 07:43:54;;;;;;;4.20;3.05;;;;;;;19.69;52.49;101310.34;5078894;28;20044;-79
2022/12/05 07:46:22;;;;;;;3.85;2.95;;;;;;;19.69;52.34;101323.78;5096603;28;20074;-79
2022/12/05 07:48:51;;;;;;;4.18;3.33;;;;;;;19.69;52.25;101321.09;5096451;28;20048;-79
2022/12/05 07:51:19;;;;;;;5.97;3.05;;;;;;;19.70;52.41;101312.06;5094690;28;20051;-79
2022/12/05 07:53:47;;;;;;;4.43;3.03;;;;;;;19.71;52.43;101313.75;5097236;28;20040;-80
2022/12/05 07:56:16;;;;;;;4.93;3.10;;;;;;;19.72;52.42;101312.78;5094644;28;20044;-79
2022/12/05 07:58:45;;;;;;;4.97;3.38;;;;;;;19.72;52.68;101315.47;5096640;28;20036;-84
2022/12/05 08:01:19;;;;;;;8.55;3.67;;;;;;;19.73;53.06;101309.13;5092082;28;20048;-81
2022/12/05 08:03:47;;;;;;;5.03;3.65;;;;;;;19.74;52.60;101328.78;5094599;28;20596;-85
2022/12/05 08:06:27;;;;;;;7.85;3.47;;;;;;;19.75;52.85;101330.50;5076043;28;20056;-83
2022/12/05 08:08:55;;;;;;;9.43;3.13;;;;;;;19.75;52.86;101325.13;5058735;28;20056;-80
2022/12/05 08:11:29;;;;;;;12.00;4.22;;;;;;;19.75;52.72;101317.91;5076381;28;20049;-78
2022/12/05 08:13:57;;;;;;;6.25;3.42;;;;;;;19.78;53.13;101321.34;5076134;28;20049;-78
2022/12/05 08:16:27;;;;;;;4.88;3.33;;;;;;;19.78;53.01;101324.88;5075601;28;20495;-78
2022/12/05 08:18:56;;;;;;;8.45;5.82;;;;;;;19.75;51.57;101317.91;5076090;28;20041;-77
2022/12/05 08:21:26;;;;;;;12.77;7.57;;;;;;;19.60;50.65;101310.19;5096673;28;20051;-80
2022/12/05 08:23:54;;;;;;;5.97;4.82;;;;;;;19.61;52.17;101310.13;5097739;28;20043;-78
2022/12/05 08:26:26;;;;;;;8.55;4.70;;;;;;;19.62;52.80;101303.75;5076922;28;20488;-79
2022/12/05 08:28:58;;;;;;;9.38;4.18;;;;;;;19.66;53.08;101312.44;5077135;28;20041;-83
2022/12/05 08:31:28;;;;;;;6.10;4.70;;;;;;;19.66;52.88;101315.97;5076296;28;20056;-77
2022/12/05 08:33:57;;;;;;;7.00;5.03;;;;;;;19.67;52.34;101312.28;5074386;28;20044;-77
2022/12/05 08:36:28;;;;;;;6.40;4.50;;;;;;;19.68;52.41;101326.56;5075383;28;20045;-77
2022/12/05 08:38:57;;;;;;;5.35;4.10;;;;;;;19.69;52.53;101329.16;5075515;28;20044;-77
2022/12/05 08:41:27;;;;;;;5.65;4.07;;;;;;;19.68;52.72;101330.13;5076299;28;20040;-77
2022/12/05 08:43:56;;;;;;;5.95;4.07;;;;;;;19.69;52.61;101341.75;5075589;28;20046;-77
2022/12/05 08:46:24;;;;;;;6.00;3.85;;;;;;;19.69;52.60;101341.75;5075412;28;20044;-76
2022/12/05 08:48:52;;;;;;;5.82;4.15;;;;;;;19.69;52.33;101342.59;5073635;28;20055;-77
2022/12/05 08:51:19;;;;;;;6.55;3.88;;;;;;;19.68;52.80;101340.84;5076391;28;20477;-77
2022/12/05 08:53:47;;;;;;;5.68;3.53;;;;;;;19.69;52.44;101336.38;5075510;28;20044;-77
2022/12/05 08:56:15;;;;;;;5.90;4.10;;;;;;;19.69;52.48;101334.53;5075367;28;20480;-76
2022/12/05 08:58:42;;;;;;;5.47;4.25;;;;;;;19.69;52.46;101339.06;5075227;28;20041;-77
2022/12/05 09:01:17;;;;;;;6.30;4.22;;;;;;;19.68;52.16;101330.13;5075657;28;20043;-76
2022/12/05 09:03:46;;;;;;;5.95;4.18;;;;;;;19.67;52.27;101339.16;5076120;28;20055;-77
2022/12/05 09:06:23;;;;;;;6.72;3.72;;;;;;;19.68;52.32;101332.81;5075060;28;20063;-77
2022/12/05 09:08:55;;;;;;;7.53;4.10;;;;;;;19.69;52.34;101333.69;5074908;28;20036;-77
2022/12/05 09:11:25;;;;;;;5.40;4.13;;;;;;;19.68;52.27;101327.44;5075583;28;20044;-77
2022/12/05 09:13:54;;;;;;;5.43;3.50;;;;;;;19.69;52.08;101333.69;5075737;28;20071;-76
2022/12/05 09:16:31;;;;;;;6.57;4.32;;;;;;;19.68;52.34;101340.84;5074206;28;20052;-77
2022/12/05 09:19:19;;;;;;;6.20;3.83;;;;;;;19.68;52.27;101335.47;5075043;28;20118;-76
2022/12/05 09:21:46;;;;;;;4.75;3.65;;;;;;;19.69;52.11;101336.38;5075309;28;20052;-77
2022/12/05 09:24:14;;;;;;;5.53;3.72;;;;;;;19.68;52.36;101329.25;5074906;28;20400;-77
2022/12/05 09:26:43;;;;;;;6.00;4.05;;;;;;;19.68;52.27;101331.94;5074843;28;20051;-77
2022/12/05 09:29:12;;;;;;;6.15;4.07;;;;;;;19.68;52.23;101332.81;5074756;28;20040;-76
2022/12/05 09:31:46;;;;;;;7.28;3.72;;;;;;;19.68;52.15;101324.75;5074444;28;20048;-77
2022/12/05 09:34:14;;;;;;;4.82;3.85;;;;;;;19.68;52.13;101314.00;5074338;28;20416;-76
2022/12/05 09:36:42;;;;;;;5.68;3.70;;;;;;;19.67;52.18;101306.91;5074824;28;20040;-77
2022/12/05 09:39:10;;;;;;;6.38;4.10;;;;;;;19.68;52.14;101316.69;5074510;28;20055;-77
2022/12/05 09:42:08;;;;;;;4.43;3.83;;;;;;;19.68;52.20;101310.47;5074860;28;20049;-77
2022/12/05 09:44:45;;;;;;;4.68;4.00;;;;;;;19.67;51.97;101306.91;5072382;28;20052;-77
2022/12/05 09:47:24;;;;;;;4.57;3.53;;;;;;;19.67;51.84;101317.66;5075093;28;20055;-78
2022/12/05 09:50:09;;;;;;;5.90;4.30;;;;;;;19.67;52.23;101317.66;5072748;28;20048;-76
2022/12/05 09:52:40;;;;;;;5.72;3.90;;;;;;;19.68;52.34;101323.88;5077789;28;20040;-75
2022/12/05 09:55:15;;;;;;;8.35;4.22;;;;;;;19.68;52.48;101318.53;5094658;28;20047;-76
2022/12/05 09:57:59;;;;;;;5.40;4.30;;;;;;;19.68;52.71;101319.38;5094432;28;20044;-78
2022/12/05 10:00:29;;;;;;;5.13;3.75;;;;;;;19.69;52.81;101313.03;5094474;28;20047;-78
2022/12/05 10:03:08;;;;;;;5.70;4.63;;;;;;;19.69;52.46;101304.97;5093918;28;20071;-77
2022/12/05 10:05:45;;;;;;;9.27;4.78;;;;;;;19.70;52.41;101301.31;5094716;28;20385;-77
2022/12/05 10:09:08;;;;;;;6.72;4.18;;;;;;;19.70;52.86;101295.94;5094262;28;20051;-77
2022/12/05 10:11:52;;;;;;;5.78;4.65;;;;;;;19.72;52.34;101288.59;5033043;28;20053;-80
2022/12/05 10:14:44;;;;;;;8.48;5.80;;;;;;;19.73;52.23;101279.59;5032791;28;20160;-78
2022/12/05 10:17:27;;;;;;;6.78;5.40;;;;;;;19.73;52.22;101262.63;5032465;28;20045;-77
2022/12/05 10:19:56;;;;;;;;;;;;;;;19.73;52.55;101274.22;5029310;28;20072;-78
2022/12/05 10:22:32;;;;;;;7.10;4.78;;;;;;;19.74;52.50;101275.06;5012655;28;19928;-79
2022/12/05 10:25:03;;;;;;;5.95;4.60;;;;;;;19.75;52.30;101274.06;5012988;28;20061;-78
2022/12/05 10:27:42;;;;;;;6.75;4.88;;;;;;;19.74;51.74;101281.28;5022275;28;20512;-77
2022/12/05 10:30:16;;;;;;;6.65;5.13;;;;;;;19.74;51.90;101275.91;5031381;28;20058;-77
2022/12/05 10:32:57;;;;;;;8.25;5.13;;;;;;;19.74;52.23;101278.59;5031589;28;20068;-76
2022/12/05 10:35:34;;;;;;;6.60;4.60;;;;;;;19.76;52.41;101275.78;5031998;28;20060;-77
2022/12/05 10:38:05;;;;;;;8.02;4.85;;;;;;;19.75;52.47;101272.25;5018588;28;20057;-76
2022/12/05 10:40:38;;;;;;;5.97;4.60;;;;;;;19.76;52.42;101273.94;5011714;28;20556;-78
2022/12/05 10:43:08;;;;;;;5.82;4.72;;;;;;;19.76;52.15;101268.56;5012202;28;20049;-76
2022/12/05 10:45:44;;;;;;;6.57;4.88;;;;;;;19.76;52.26;101265.88;5040466;28;20067;-78
2022/12/05 10:48:17;;;;;;;7.90;4.40;;;;;;;19.76;52.09;101262.34;5088644;28;20048;-76
2022/12/05 10:50:48;;;;;;;7.00;4.90;;;;;;;19.77;52.12;101256.03;5093971;28;20044;-76
2022/12/05 10:53:19;;;;;;;5.80;4.55;;;;;;;19.76;52.19;101244.38;5092932;28;20051;-75
2022/12/05 10:55:49;;;;;;;5.75;3.90;;;;;;;19.76;52.15;101233.66;5093718;28;20051;-76
2022/12/05 10:58:37;;;;;;;5.97;4.47;;;;;;;19.76;51.61;101233.66;5097384;28;20044;-76
2022/12/05 11:01:13;;;;;;;6.00;4.20;;;;;;;19.77;52.24;101231.84;5089217;28;20055;-76
2022/12/05 11:03:42;;;;;;;6.30;4.28;;;;;;;19.76;51.77;101236.31;5094313;28;20048;-75
2022/12/05 11:06:18;;;;;;;5.90;4.63;;;;;;;19.77;52.15;101226.47;5096990;28;20043;-75
2022/12/05 11:08:55;;;;;;;6.88;4.25;;;;;;;19.76;51.95;101220.22;5097145;28;20395;-75
2022/12/05 11:11:32;;;;;;;5.70;3.78;;;;;;;19.78;51.89;101230.84;5096807;28;20048;-76
2022/12/05 11:14:01;;;;;;;5.63;3.90;;;;;;;19.78;52.01;101219.25;5096499;28;20434;-77
2022/12/05 11:16:34;;;;;;;6.05;3.67;;;;;;;19.78;52.16;101222.78;5095693;28;20056;-77
2022/12/05 11:19:36;;;;;;;5.88;3.72;;;;;;;19.78;52.36;101232.69;5078042;28;20051;-75
2022/12/05 11:22:04;;;;;;;6.50;4.00;;;;;;;19.78;52.29;101225.47;5075991;28;20055;-77
2022/12/05 11:24:34;;;;;;;9.18;4.75;;;;;;;19.79;51.89;101212.91;5076435;28;20040;-77
2022/12/05 11:27:16;;;;;;;5.22;3.95;;;;;;;19.78;52.21;101200.44;5077197;28;20412;-77
2022/12/05 11:29:54;;;;;;;6.82;3.83;;;;;;;19.78;52.28;101192.38;5077259;28;20044;-78
2022/12/05 11:32:25;;;;;;;6.28;4.30;;;;;;;19.79;52.08;101189.56;5081176;28;20054;-79
2022/12/05 11:35:10;;;;;;;6.50;4.28;;;;;;;19.79;52.25;101197.63;5096728;28;20044;-76
2022/12/05 11:37:58;;;;;;;8.68;4.25;;;;;;;19.80;52.05;101201.16;5097200;28;20050;-77
2022/12/05 11:40:41;;;;;;;6.15;4.07;;;;;;;19.80;51.98;101195.78;5097398;28;20052;-78
2022/12/05 11:43:08;;;;;;;5.47;4.18;;;;;;;19.79;52.01;101199.47;5096092;28;20063;-77
2022/12/05 11:45:48;;;;;;;7.97;4.28;;;;;;;19.78;51.80;101193.25;5097432;28;20047;-78
2022/12/05 11:48:20;;;;;;;5.90;4.10;;;;;;;19.78;51.44;101198.63;5085844;28;20049;-80
2022/12/05 11:51:13;;;;;;;6.22;3.78;;;;;;;19.79;51.60;101186.88;5077115;28;20047;-77
2022/12/05 11:54:02;;;;;;;5.35;3.95;;;;;;;19.77;51.65;101178.09;5090949;28;20472;-80
2022/12/05 11:56:45;;;;;;;6.35;4.38;;;;;;;19.79;51.75;101186.03;5095844;28;20048;-79
2022/12/05 11:59:24;;;;;;;5.03;3.85;;;;;;;19.79;51.97;101176.13;5076008;28;20388;-78
2022/12/05 12:02:02;;;;;;;6.07;4.03;;;;;;;19.79;51.90;101176.13;5076195;28;20040;-79
2022/12/05 12:04:35;;;;;;;5.38;3.85;;;;;;;19.80;51.71;101176.97;5076115;28;20052;-78